sensor_id;sensor_type;location;lat;lon;timestamp;temperature;humidity
38866;DHT22;62686;48.984;8.394;2024-03-29T00:56:51;5.70;99.90
38866;DHT22;62686;48.984;8.394;2024-03-29T00:59:19;5.80;99.90
38866;DHT22;62686;48.984;8.394;2024-03-29T01:01:46;5.90;99.90
38866;DHT22;62686;48.984;8.394;2024-03-29T01:04:13;6.00;99.90
38866;DHT22;62686;48.984;8.394;2024-03-29T01:06:41;6.20;99.90
38866;DHT22;62686;48.984;8.394;2024-03-29T01:09:08;6.30;99.90
38866;DHT22;62686;48.984;8.394;2024-03-29T01:11:35;6.50;99.90
38866;DHT22;62686;48.984;8.394;2024-03-29T01:14:03;6.90;99.90
38866;DHT22;62686;48.984;8.394;2024-03-29T01:16:30;7.20;99.90
38866;DHT22;62686;48.984;8.394;2024-03-29T01:18:57;7.40;99.90
38866;DHT22;62686;48.984;8.394;2024-03-29T01:21:25;7.60;99.90
38866;DHT22;62686;48.984;8.394;2024-03-29T01:23:51;7.90;99.90
38866;DHT22;62686;48.984;8.394;2024-03-29T01:26:18;8.00;99.90
38866;DHT22;62686;48.984;8.394;2024-03-29T01:28:45;7.90;99.90
38866;DHT22;62686;48.984;8.394;2024-03-29T01:31:13;7.90;99.90
38866;DHT22;62686;48.984;8.394;2024-03-29T01:33:40;7.90;99.90
38866;DHT22;62686;48.984;8.394;2024-03-29T01:36:07;7.90;99.90
38866;DHT22;62686;48.984;8.394;2024-03-29T01:38:34;7.90;99.90
38866;DHT22;62686;48.984;8.394;2024-03-29T01:41:01;7.90;99.90
38866;DHT22;62686;48.984;8.394;2024-03-29T01:43:27;7.90;99.90
38866;DHT22;62686;48.984;8.394;2024-03-29T01:45:55;8.10;99.90
38866;DHT22;62686;48.984;8.394;2024-03-29T01:48:26;8.20;99.90
38866;DHT22;62686;48.984;8.394;2024-03-29T01:50:56;8.10;99.90
38866;DHT22;62686;48.984;8.394;2024-03-29T01:53:25;8.10;99.90
38866;DHT22;62686;48.984;8.394;2024-03-29T01:55:53;8.00;99.90
38866;DHT22;62686;48.984;8.394;2024-03-29T01:58:22;7.90;99.90
38866;DHT22;62686;48.984;8.394;2024-03-29T02:00:52;7.90;99.90
38866;DHT22;62686;48.984;8.394;2024-03-29T02:03:21;7.90;99.90
38866;DHT22;62686;48.984;8.394;2024-03-29T02:05:51;7.90;99.90
38866;DHT22;62686;48.984;8.394;2024-03-29T02:08:19;7.90;99.90
38866;DHT22;62686;48.984;8.394;2024-03-29T02:10:47;7.90;99.90
38866;DHT22;62686;48.984;8.394;2024-03-29T02:13:15;7.90;99.90
38866;DHT22;62686;48.984;8.394;2024-03-29T02:15:42;8.20;99.90
38866;DHT22;62686;48.984;8.394;2024-03-29T02:18:10;8.40;99.90
38866;DHT22;62686;48.984;8.394;2024-03-29T02:20:38;8.50;99.90
38866;DHT22;62686;48.984;8.394;2024-03-29T02:23:11;8.50;99.90
38866;DHT22;62686;48.984;8.394;2024-03-29T02:25:42;8.50;99.90
38866;DHT22;62686;48.984;8.394;2024-03-29T02:28:09;8.50;99.90
38866;DHT22;62686;48.984;8.394;2024-03-29T02:30:37;8.70;99.90
38866;DHT22;62686;48.984;8.394;2024-03-29T02:33:04;8.90;99.90
38866;DHT22;62686;48.984;8.394;2024-03-29T02:35:32;8.90;99.90
38866;DHT22;62686;48.984;8.394;2024-03-29T02:38:00;9.00;99.90
38866;DHT22;62686;48.984;8.394;2024-03-29T02:40:27;8.90;99.90
38866;DHT22;62686;48.984;8.394;2024-03-29T02:42:56;8.90;99.90
38866;DHT22;62686;48.984;8.394;2024-03-29T02:45:24;8.80;99.90
38866;DHT22;62686;48.984;8.394;2024-03-29T02:47:51;8.80;99.90
38866;DHT22;62686;48.984;8.394;2024-03-29T02:50:18;8.80;99.90
38866;DHT22;62686;48.984;8.394;2024-03-29T02:52:45;8.80;99.90
38866;DHT22;62686;48.984;8.394;2024-03-29T02:55:12;8.80;99.90
38866;DHT22;62686;48.984;8.394;2024-03-29T02:57:39;8.80;99.90
38866;DHT22;62686;48.984;8.394;2024-03-29T03:00:09;8.80;99.90
38866;DHT22;62686;48.984;8.394;2024-03-29T03:02:37;8.80;99.90
38866;DHT22;62686;48.984;8.394;2024-03-29T03:05:05;8.80;99.90
38866;DHT22;62686;48.984;8.394;2024-03-29T03:07:34;9.00;99.90
38866;DHT22;62686;48.984;8.394;2024-03-29T03:42:45;7.90;99.90
38866;DHT22;62686;48.984;8.394;2024-03-29T03:45:12;7.80;99.90
38866;DHT22;62686;48.984;8.394;2024-03-29T03:47:39;7.80;99.90
38866;DHT22;62686;48.984;8.394;2024-03-29T03:50:08;8.00;99.90
38866;DHT22;62686;48.984;8.394;2024-03-29T03:52:35;7.90;99.90
38866;DHT22;62686;48.984;8.394;2024-03-29T03:55:03;8.00;99.90
38866;DHT22;62686;48.984;8.394;2024-03-29T03:57:30;8.10;99.90
38866;DHT22;62686;48.984;8.394;2024-03-29T04:00:01;8.30;99.90
38866;DHT22;62686;48.984;8.394;2024-03-29T04:02:29;8.60;99.90
38866;DHT22;62686;48.984;8.394;2024-03-29T04:04:56;8.70;99.90
38866;DHT22;62686;48.984;8.394;2024-03-29T04:07:24;8.80;99.90
38866;DHT22;62686;48.984;8.394;2024-03-29T04:09:51;8.90;99.90
38866;DHT22;62686;48.984;8.394;2024-03-29T04:12:19;8.90;99.90
38866;DHT22;62686;48.984;8.394;2024-03-29T04:14:45;9.20;99.90
38866;DHT22;62686;48.984;8.394;2024-03-29T04:17:14;9.30;99.90
38866;DHT22;62686;48.984;8.394;2024-03-29T06:28:08;9.30;99.90
38866;DHT22;62686;48.984;8.394;2024-03-29T07:22:41;8.20;99.90
38866;DHT22;62686;48.984;8.394;2024-03-29T07:25:09;8.10;99.90
38866;DHT22;62686;48.984;8.394;2024-03-29T07:27:37;8.10;99.90
38866;DHT22;62686;48.984;8.394;2024-03-29T07:30:05;8.00;99.90
38866;DHT22;62686;48.984;8.394;2024-03-29T07:32:34;8.00;99.90
38866;DHT22;62686;48.984;8.394;2024-03-29T07:35:02;7.90;99.90
38866;DHT22;62686;48.984;8.394;2024-03-29T07:37:30;7.80;99.90
38866;DHT22;62686;48.984;8.394;2024-03-29T07:39:59;7.80;99.90
38866;DHT22;62686;48.984;8.394;2024-03-29T07:42:27;7.70;99.90
38866;DHT22;62686;48.984;8.394;2024-03-29T07:44:54;7.70;99.90
38866;DHT22;62686;48.984;8.394;2024-03-29T07:47:22;7.70;99.90
38866;DHT22;62686;48.984;8.394;2024-03-29T07:49:51;7.70;99.90
38866;DHT22;62686;48.984;8.394;2024-03-29T07:52:19;7.70;99.90
38866;DHT22;62686;48.984;8.394;2024-03-29T07:54:57;7.80;99.90
38866;DHT22;62686;48.984;8.394;2024-03-29T07:57:32;7.80;99.90
38866;DHT22;62686;48.984;8.394;2024-03-29T08:00:00;7.90;99.90
38866;DHT22;62686;48.984;8.394;2024-03-29T08:02:28;7.80;99.90
38866;DHT22;62686;48.984;8.394;2024-03-29T08:04:56;7.80;99.90
38866;DHT22;62686;48.984;8.394;2024-03-29T08:07:23;7.80;99.90
38866;DHT22;62686;48.984;8.394;2024-03-29T08:09:51;7.80;99.90
38866;DHT22;62686;48.984;8.394;2024-03-29T08:12:20;7.90;99.90
38866;DHT22;62686;48.984;8.394;2024-03-29T08:14:47;7.80;99.90
38866;DHT22;62686;48.984;8.394;2024-03-29T08:17:15;7.90;99.90
38866;DHT22;62686;48.984;8.394;2024-03-29T08:19:43;7.90;99.90
38866;DHT22;62686;48.984;8.394;2024-03-29T08:22:10;8.00;99.90
38866;DHT22;62686;48.984;8.394;2024-03-29T08:24:38;8.10;99.90
38866;DHT22;62686;48.984;8.394;2024-03-29T08:27:05;8.20;99.90
38866;DHT22;62686;48.984;8.394;2024-03-29T08:29:34;8.30;99.90
38866;DHT22;62686;48.984;8.394;2024-03-29T08:32:02;8.40;99.90
38866;DHT22;62686;48.984;8.394;2024-03-29T08:34:29;8.50;99.90
38866;DHT22;62686;48.984;8.394;2024-03-29T08:37:00;8.50;99.90
38866;DHT22;62686;48.984;8.394;2024-03-29T08:39:29;8.60;99.90
38866;DHT22;62686;48.984;8.394;2024-03-29T08:41:57;8.70;99.90
38866;DHT22;62686;48.984;8.394;2024-03-29T08:44:25;8.70;99.90
38866;DHT22;62686;48.984;8.394;2024-03-29T08:46:54;8.70;99.90
38866;DHT22;62686;48.984;8.394;2024-03-29T08:49:22;8.80;99.90
38866;DHT22;62686;48.984;8.394;2024-03-29T08:51:50;8.80;99.90
38866;DHT22;62686;48.984;8.394;2024-03-29T08:54:17;8.90;99.90
38866;DHT22;62686;48.984;8.394;2024-03-29T08:56:45;9.00;99.90
38866;DHT22;62686;48.984;8.394;2024-03-29T08:59:12;9.10;99.90
38866;DHT22;62686;48.984;8.394;2024-03-29T09:01:44;9.20;99.90
38866;DHT22;62686;48.984;8.394;2024-03-29T09:04:16;9.40;99.90
38866;DHT22;62686;48.984;8.394;2024-03-29T09:06:43;9.50;99.90
38866;DHT22;62686;48.984;8.394;2024-03-29T09:09:10;9.70;99.90
38866;DHT22;62686;48.984;8.394;2024-03-29T09:11:39;9.90;99.90
38866;DHT22;62686;48.984;8.394;2024-03-29T09:14:06;10.40;99.90
38866;DHT22;62686;48.984;8.394;2024-03-29T09:16:35;10.90;99.90
38866;DHT22;62686;48.984;8.394;2024-03-29T09:19:03;11.30;99.90
38866;DHT22;62686;48.984;8.394;2024-03-29T09:21:32;11.50;99.90
38866;DHT22;62686;48.984;8.394;2024-03-29T09:23:59;11.60;99.90
38866;DHT22;62686;48.984;8.394;2024-03-29T09:26:28;11.40;99.90
38866;DHT22;62686;48.984;8.394;2024-03-29T09:28:56;11.30;99.90
38866;DHT22;62686;48.984;8.394;2024-03-29T09:31:23;11.40;99.90
38866;DHT22;62686;48.984;8.394;2024-03-29T09:33:51;11.50;99.90
38866;DHT22;62686;48.984;8.394;2024-03-29T09:36:23;11.80;99.90
38866;DHT22;62686;48.984;8.394;2024-03-29T09:38:52;11.90;99.90
38866;DHT22;62686;48.984;8.394;2024-03-29T09:41:20;12.10;99.90
38866;DHT22;62686;48.984;8.394;2024-03-29T09:43:48;12.20;99.90
38866;DHT22;62686;48.984;8.394;2024-03-29T09:46:17;12.40;99.90
38866;DHT22;62686;48.984;8.394;2024-03-29T09:48:45;12.60;99.90
38866;DHT22;62686;48.984;8.394;2024-03-29T09:51:14;12.60;99.90
38866;DHT22;62686;48.984;8.394;2024-03-29T09:53:43;12.50;99.90
38866;DHT22;62686;48.984;8.394;2024-03-29T09:56:12;12.50;99.90
38866;DHT22;62686;48.984;8.394;2024-03-29T09:58:40;12.40;99.90
38866;DHT22;62686;48.984;8.394;2024-03-29T10:01:07;12.50;99.90
38866;DHT22;62686;48.984;8.394;2024-03-29T10:03:39;12.50;99.90
38866;DHT22;62686;48.984;8.394;2024-03-29T10:06:08;12.50;99.90
38866;DHT22;62686;48.984;8.394;2024-03-29T10:08:38;12.70;99.90
38866;DHT22;62686;48.984;8.394;2024-03-29T10:11:06;12.90;99.90
38866;DHT22;62686;48.984;8.394;2024-03-29T10:13:35;13.10;99.90
38866;DHT22;62686;48.984;8.394;2024-03-29T10:16:04;13.10;99.90
38866;DHT22;62686;48.984;8.394;2024-03-29T10:18:31;13.10;99.90
38866;DHT22;62686;48.984;8.394;2024-03-29T10:20:59;13.00;99.90
38866;DHT22;62686;48.984;8.394;2024-03-29T10:23:28;13.00;99.90
38866;DHT22;62686;48.984;8.394;2024-03-29T10:25:55;13.10;99.90
38866;DHT22;62686;48.984;8.394;2024-03-29T10:28:23;13.20;99.90
38866;DHT22;62686;48.984;8.394;2024-03-29T10:30:52;13.40;99.90
38866;DHT22;62686;48.984;8.394;2024-03-29T10:33:19;13.50;99.90
38866;DHT22;62686;48.984;8.394;2024-03-29T10:35:47;13.60;99.90
38866;DHT22;62686;48.984;8.394;2024-03-29T10:38:14;13.50;99.90
38866;DHT22;62686;48.984;8.394;2024-03-29T10:40:42;13.40;99.90
38866;DHT22;62686;48.984;8.394;2024-03-29T10:43:11;13.10;99.90
38866;DHT22;62686;48.984;8.394;2024-03-29T10:45:40;13.10;99.90
38866;DHT22;62686;48.984;8.394;2024-03-29T10:48:10;13.20;99.90
38866;DHT22;62686;48.984;8.394;2024-03-29T10:50:38;13.60;99.90
38866;DHT22;62686;48.984;8.394;2024-03-29T10:53:09;14.00;99.90
38866;DHT22;62686;48.984;8.394;2024-03-29T10:55:38;14.50;99.90
38866;DHT22;62686;48.984;8.394;2024-03-29T10:58:06;14.90;99.90
38866;DHT22;62686;48.984;8.394;2024-03-29T11:00:38;15.40;99.90
38866;DHT22;62686;48.984;8.394;2024-03-29T11:03:16;15.90;99.90
38866;DHT22;62686;48.984;8.394;2024-03-29T11:05:48;16.30;99.90
38866;DHT22;62686;48.984;8.394;2024-03-29T11:08:21;16.60;99.90
38866;DHT22;62686;48.984;8.394;2024-03-29T11:10:50;16.80;99.90
38866;DHT22;62686;48.984;8.394;2024-03-29T11:13:23;17.00;99.90
38866;DHT22;62686;48.984;8.394;2024-03-29T11:15:53;16.90;99.90
38866;DHT22;62686;48.984;8.394;2024-03-29T11:20:58;16.90;99.90
38866;DHT22;62686;48.984;8.394;2024-03-29T11:23:28;16.80;99.90
38866;DHT22;62686;48.984;8.394;2024-03-29T11:25:58;16.90;99.90
38866;DHT22;62686;48.984;8.394;2024-03-29T11:28:28;16.90;99.90
38866;DHT22;62686;48.984;8.394;2024-03-29T11:31:00;17.20;99.90
38866;DHT22;62686;48.984;8.394;2024-03-29T11:38:51;18.00;99.90
38866;DHT22;62686;48.984;8.394;2024-03-29T11:41:21;17.70;99.90
38866;DHT22;62686;48.984;8.394;2024-03-29T11:43:50;17.80;99.90
38866;DHT22;62686;48.984;8.394;2024-03-29T11:46:18;17.80;99.90
38866;DHT22;62686;48.984;8.394;2024-03-29T11:48:47;18.00;99.90
38866;DHT22;62686;48.984;8.394;2024-03-29T11:51:17;18.10;99.90
38866;DHT22;62686;48.984;8.394;2024-03-29T11:53:49;18.30;99.90
38866;DHT22;62686;48.984;8.394;2024-03-29T11:56:19;18.20;99.90
38866;DHT22;62686;48.984;8.394;2024-03-29T11:58:49;17.90;99.90
38866;DHT22;62686;48.984;8.394;2024-03-29T12:01:17;17.40;99.90
38866;DHT22;62686;48.984;8.394;2024-03-29T12:03:45;17.50;99.90
38866;DHT22;62686;48.984;8.394;2024-03-29T12:06:14;17.40;99.90
38866;DHT22;62686;48.984;8.394;2024-03-29T12:08:43;17.20;99.90
38866;DHT22;62686;48.984;8.394;2024-03-29T12:11:12;17.00;99.90
38866;DHT22;62686;48.984;8.394;2024-03-29T12:13:40;16.90;99.90
38866;DHT22;62686;48.984;8.394;2024-03-29T12:16:07;16.80;99.90
38866;DHT22;62686;48.984;8.394;2024-03-29T12:18:35;16.70;99.90
38866;DHT22;62686;48.984;8.394;2024-03-29T12:21:03;16.60;99.90
38866;DHT22;62686;48.984;8.394;2024-03-29T12:23:31;16.50;99.90
38866;DHT22;62686;48.984;8.394;2024-03-29T12:25:58;16.40;99.90
38866;DHT22;62686;48.984;8.394;2024-03-29T12:28:27;16.30;99.90
38866;DHT22;62686;48.984;8.394;2024-03-29T12:30:56;16.10;99.90
38866;DHT22;62686;48.984;8.394;2024-03-29T12:33:24;16.00;99.90
38866;DHT22;62686;48.984;8.394;2024-03-29T12:35:52;15.80;99.90
38866;DHT22;62686;48.984;8.394;2024-03-29T12:38:21;15.60;99.90
38866;DHT22;62686;48.984;8.394;2024-03-29T12:40:50;15.40;99.90
38866;DHT22;62686;48.984;8.394;2024-03-29T12:43:21;15.20;99.90
38866;DHT22;62686;48.984;8.394;2024-03-29T12:45:51;15.10;99.90
38866;DHT22;62686;48.984;8.394;2024-03-29T12:48:20;14.90;99.90
38866;DHT22;62686;48.984;8.394;2024-03-29T12:50:49;14.60;99.90
38866;DHT22;62686;48.984;8.394;2024-03-29T12:53:18;14.60;99.90
38866;DHT22;62686;48.984;8.394;2024-03-29T12:55:47;14.60;99.90
38866;DHT22;62686;48.984;8.394;2024-03-29T12:58:16;14.40;99.90
38866;DHT22;62686;48.984;8.394;2024-03-29T13:00:46;14.40;99.90
38866;DHT22;62686;48.984;8.394;2024-03-29T13:03:16;14.30;99.90
38866;DHT22;62686;48.984;8.394;2024-03-29T13:05:43;14.20;99.90
38866;DHT22;62686;48.984;8.394;2024-03-29T13:08:12;14.20;99.90
38866;DHT22;62686;48.984;8.394;2024-03-29T13:10:41;14.20;99.90
38866;DHT22;62686;48.984;8.394;2024-03-29T13:13:09;14.20;99.90
38866;DHT22;62686;48.984;8.394;2024-03-29T13:15:38;14.20;99.90
38866;DHT22;62686;48.984;8.394;2024-03-29T13:18:07;14.20;99.90
38866;DHT22;62686;48.984;8.394;2024-03-29T13:20:37;14.30;99.90
38866;DHT22;62686;48.984;8.394;2024-03-29T13:23:07;14.10;99.90
38866;DHT22;62686;48.984;8.394;2024-03-29T13:25:34;14.00;99.90
38866;DHT22;62686;48.984;8.394;2024-03-29T13:28:02;14.00;99.90
38866;DHT22;62686;48.984;8.394;2024-03-29T13:30:28;14.20;99.90
38866;DHT22;62686;48.984;8.394;2024-03-29T13:32:56;14.30;99.90
38866;DHT22;62686;48.984;8.394;2024-03-29T13:35:23;14.30;99.90
38866;DHT22;62686;48.984;8.394;2024-03-29T13:37:52;14.40;99.90
38866;DHT22;62686;48.984;8.394;2024-03-29T13:40:22;14.40;99.90
38866;DHT22;62686;48.984;8.394;2024-03-29T13:42:51;14.50;99.90
38866;DHT22;62686;48.984;8.394;2024-03-29T13:45:18;14.30;99.90
38866;DHT22;62686;48.984;8.394;2024-03-29T13:47:46;14.30;99.90
38866;DHT22;62686;48.984;8.394;2024-03-29T13:50:14;14.20;99.90
38866;DHT22;62686;48.984;8.394;2024-03-29T13:52:42;14.20;99.90
38866;DHT22;62686;48.984;8.394;2024-03-29T13:55:12;14.20;99.90
38866;DHT22;62686;48.984;8.394;2024-03-29T13:57:40;14.10;99.90
38866;DHT22;62686;48.984;8.394;2024-03-29T14:00:10;14.10;99.90
38866;DHT22;62686;48.984;8.394;2024-03-29T14:02:45;14.20;99.90
38866;DHT22;62686;48.984;8.394;2024-03-29T14:05:17;14.10;99.90
38866;DHT22;62686;48.984;8.394;2024-03-29T14:07:44;14.00;99.90
38866;DHT22;62686;48.984;8.394;2024-03-29T14:10:16;14.00;99.90
38866;DHT22;62686;48.984;8.394;2024-03-29T14:12:45;14.00;99.90
38866;DHT22;62686;48.984;8.394;2024-03-29T14:15:13;14.00;99.90
38866;DHT22;62686;48.984;8.394;2024-03-29T14:17:40;14.10;99.90
38866;DHT22;62686;48.984;8.394;2024-03-29T14:20:09;14.10;99.90
38866;DHT22;62686;48.984;8.394;2024-03-29T14:22:38;14.10;99.90
38866;DHT22;62686;48.984;8.394;2024-03-29T14:25:06;14.10;99.90
38866;DHT22;62686;48.984;8.394;2024-03-29T14:27:38;14.20;99.90
38866;DHT22;62686;48.984;8.394;2024-03-29T14:30:13;14.20;99.90
38866;DHT22;62686;48.984;8.394;2024-03-29T14:32:46;14.30;99.90
38866;DHT22;62686;48.984;8.394;2024-03-29T14:35:14;14.40;99.90
38866;DHT22;62686;48.984;8.394;2024-03-29T14:37:42;14.30;99.90
38866;DHT22;62686;48.984;8.394;2024-03-29T14:40:11;14.50;99.90
38866;DHT22;62686;48.984;8.394;2024-03-29T14:42:42;14.60;99.90
38866;DHT22;62686;48.984;8.394;2024-03-29T14:45:10;14.70;99.90
38866;DHT22;62686;48.984;8.394;2024-03-29T14:47:38;14.80;99.90
38866;DHT22;62686;48.984;8.394;2024-03-29T14:50:06;15.00;99.90
38866;DHT22;62686;48.984;8.394;2024-03-29T14:52:34;14.90;99.90
38866;DHT22;62686;48.984;8.394;2024-03-29T14:55:02;14.90;99.90
38866;DHT22;62686;48.984;8.394;2024-03-29T14:57:30;15.10;99.90
38866;DHT22;62686;48.984;8.394;2024-03-29T14:59:59;15.20;99.90
38866;DHT22;62686;48.984;8.394;2024-03-29T15:02:27;15.20;99.90
38866;DHT22;62686;48.984;8.394;2024-03-29T15:04:54;15.20;99.90
38866;DHT22;62686;48.984;8.394;2024-03-29T15:07:23;15.30;99.90
38866;DHT22;62686;48.984;8.394;2024-03-29T15:09:52;15.50;99.90
38866;DHT22;62686;48.984;8.394;2024-03-29T15:12:19;15.50;99.90
38866;DHT22;62686;48.984;8.394;2024-03-29T15:14:47;15.40;99.90
38866;DHT22;62686;48.984;8.394;2024-03-29T15:17:15;15.30;99.90
38866;DHT22;62686;48.984;8.394;2024-03-29T15:19:45;15.30;99.90
38866;DHT22;62686;48.984;8.394;2024-03-29T15:22:16;15.30;99.90
38866;DHT22;62686;48.984;8.394;2024-03-29T15:24:44;15.40;99.90
38866;DHT22;62686;48.984;8.394;2024-03-29T15:27:26;15.50;99.90
38866;DHT22;62686;48.984;8.394;2024-03-29T15:30:14;15.30;99.90
38866;DHT22;62686;48.984;8.394;2024-03-29T15:32:45;15.00;99.90
38866;DHT22;62686;48.984;8.394;2024-03-29T15:35:34;14.90;99.90
38866;DHT22;62686;48.984;8.394;2024-03-29T15:38:04;14.90;99.90
38866;DHT22;62686;48.984;8.394;2024-03-29T15:40:37;14.80;99.90
38866;DHT22;62686;48.984;8.394;2024-03-29T15:43:04;14.70;99.90
38866;DHT22;62686;48.984;8.394;2024-03-29T15:45:32;14.70;99.90
38866;DHT22;62686;48.984;8.394;2024-03-29T15:48:01;14.60;99.90
38866;DHT22;62686;48.984;8.394;2024-03-29T15:50:28;14.60;99.90
38866;DHT22;62686;48.984;8.394;2024-03-29T15:52:56;14.60;99.90
38866;DHT22;62686;48.984;8.394;2024-03-29T15:55:24;14.50;99.90
38866;DHT22;62686;48.984;8.394;2024-03-29T15:57:51;14.50;99.90
38866;DHT22;62686;48.984;8.394;2024-03-29T16:00:19;14.40;99.90
38866;DHT22;62686;48.984;8.394;2024-03-29T16:02:49;14.30;99.90
38866;DHT22;62686;48.984;8.394;2024-03-29T16:05:18;14.40;99.90
38866;DHT22;62686;48.984;8.394;2024-03-29T16:07:45;14.30;99.90
38866;DHT22;62686;48.984;8.394;2024-03-29T16:10:13;14.20;99.90
38866;DHT22;62686;48.984;8.394;2024-03-29T16:12:41;14.20;99.90
38866;DHT22;62686;48.984;8.394;2024-03-29T16:15:08;14.10;99.90
38866;DHT22;62686;48.984;8.394;2024-03-29T16:17:36;14.00;99.90
38866;DHT22;62686;48.984;8.394;2024-03-29T16:20:05;14.10;99.90
38866;DHT22;62686;48.984;8.394;2024-03-29T16:22:34;14.10;99.90
38866;DHT22;62686;48.984;8.394;2024-03-29T16:25:01;14.00;99.90
38866;DHT22;62686;48.984;8.394;2024-03-29T16:27:28;13.90;99.90
38866;DHT22;62686;48.984;8.394;2024-03-29T16:29:55;13.90;99.90
38866;DHT22;62686;48.984;8.394;2024-03-29T16:32:22;13.90;99.90
38866;DHT22;62686;48.984;8.394;2024-03-29T16:34:50;13.80;99.90
38866;DHT22;62686;48.984;8.394;2024-03-29T16:37:16;13.80;99.90
38866;DHT22;62686;48.984;8.394;2024-03-29T16:39:46;13.70;99.90
38866;DHT22;62686;48.984;8.394;2024-03-29T16:42:13;13.70;99.90
38866;DHT22;62686;48.984;8.394;2024-03-29T16:44:40;13.70;99.90
38866;DHT22;62686;48.984;8.394;2024-03-29T16:47:07;13.70;99.90
38866;DHT22;62686;48.984;8.394;2024-03-29T16:49:34;13.60;99.90
38866;DHT22;62686;48.984;8.394;2024-03-29T16:52:01;13.50;99.90
38866;DHT22;62686;48.984;8.394;2024-03-29T16:54:29;13.50;99.90
38866;DHT22;62686;48.984;8.394;2024-03-29T16:56:57;13.50;99.90
38866;DHT22;62686;48.984;8.394;2024-03-29T16:59:24;13.40;99.90
38866;DHT22;62686;48.984;8.394;2024-03-29T17:01:52;13.30;99.90
38866;DHT22;62686;48.984;8.394;2024-03-29T17:04:19;13.20;99.90
38866;DHT22;62686;48.984;8.394;2024-03-29T17:06:46;13.10;99.90
38866;DHT22;62686;48.984;8.394;2024-03-29T17:09:33;13.00;99.90
38866;DHT22;62686;48.984;8.394;2024-03-29T17:12:02;12.90;99.90
38866;DHT22;62686;48.984;8.394;2024-03-29T17:14:31;12.80;99.90
38866;DHT22;62686;48.984;8.394;2024-03-29T17:16:58;12.70;99.90
38866;DHT22;62686;48.984;8.394;2024-03-29T17:19:26;12.60;99.90
38866;DHT22;62686;48.984;8.394;2024-03-29T17:21:53;12.60;99.90
38866;DHT22;62686;48.984;8.394;2024-03-29T17:24:21;12.50;99.90
38866;DHT22;62686;48.984;8.394;2024-03-29T17:26:48;12.40;99.90
38866;DHT22;62686;48.984;8.394;2024-03-29T17:29:17;12.40;99.90
38866;DHT22;62686;48.984;8.394;2024-03-29T17:31:43;12.30;99.90
38866;DHT22;62686;48.984;8.394;2024-03-29T17:34:11;12.30;99.90
38866;DHT22;62686;48.984;8.394;2024-03-29T17:36:39;12.20;99.90
38866;DHT22;62686;48.984;8.394;2024-03-29T17:39:07;12.20;99.90
38866;DHT22;62686;48.984;8.394;2024-03-29T17:41:34;12.10;99.90
38866;DHT22;62686;48.984;8.394;2024-03-29T17:44:01;12.10;99.90
38866;DHT22;62686;48.984;8.394;2024-03-29T17:46:29;12.00;99.90
38866;DHT22;62686;48.984;8.394;2024-03-29T17:48:56;12.00;99.90
38866;DHT22;62686;48.984;8.394;2024-03-29T17:51:23;12.00;99.90
38866;DHT22;62686;48.984;8.394;2024-03-29T17:53:51;11.90;99.90
38866;DHT22;62686;48.984;8.394;2024-03-29T17:56:18;11.90;99.90
38866;DHT22;62686;48.984;8.394;2024-03-29T17:58:46;11.90;99.90
38866;DHT22;62686;48.984;8.394;2024-03-29T18:01:13;11.80;99.90
38866;DHT22;62686;48.984;8.394;2024-03-29T18:03:43;11.80;99.90
38866;DHT22;62686;48.984;8.394;2024-03-29T18:06:12;11.70;99.90
38866;DHT22;62686;48.984;8.394;2024-03-29T18:08:39;11.70;99.90
38866;DHT22;62686;48.984;8.394;2024-03-29T18:11:06;11.70;99.90
38866;DHT22;62686;48.984;8.394;2024-03-29T18:13:34;11.70;99.90
38866;DHT22;62686;48.984;8.394;2024-03-29T18:16:02;11.70;99.90
38866;DHT22;62686;48.984;8.394;2024-03-29T18:18:30;11.60;99.90
38866;DHT22;62686;48.984;8.394;2024-03-29T18:20:58;11.50;99.90
38866;DHT22;62686;48.984;8.394;2024-03-29T18:23:26;11.60;99.90
38866;DHT22;62686;48.984;8.394;2024-03-29T18:25:52;11.60;99.90
38866;DHT22;62686;48.984;8.394;2024-03-29T18:28:20;11.60;99.90
38866;DHT22;62686;48.984;8.394;2024-03-29T18:30:49;11.70;99.90
38866;DHT22;62686;48.984;8.394;2024-03-29T18:33:16;11.70;99.90
38866;DHT22;62686;48.984;8.394;2024-03-29T18:35:43;11.70;99.90
38866;DHT22;62686;48.984;8.394;2024-03-29T18:38:12;11.80;99.90
38866;DHT22;62686;48.984;8.394;2024-03-29T18:40:38;11.70;99.90
38866;DHT22;62686;48.984;8.394;2024-03-29T18:43:06;11.70;99.90
38866;DHT22;62686;48.984;8.394;2024-03-29T18:45:37;11.60;99.90
38866;DHT22;62686;48.984;8.394;2024-03-29T18:48:05;11.60;99.90
38866;DHT22;62686;48.984;8.394;2024-03-29T18:50:32;11.50;99.90
38866;DHT22;62686;48.984;8.394;2024-03-29T18:53:00;11.40;99.90
38866;DHT22;62686;48.984;8.394;2024-03-29T18:55:28;11.40;99.90
38866;DHT22;62686;48.984;8.394;2024-03-29T18:57:56;11.30;99.90
38866;DHT22;62686;48.984;8.394;2024-03-29T19:00:22;11.20;99.90
38866;DHT22;62686;48.984;8.394;2024-03-29T19:02:51;11.20;99.90
38866;DHT22;62686;48.984;8.394;2024-03-29T19:05:18;11.20;99.90
38866;DHT22;62686;48.984;8.394;2024-03-29T19:07:45;11.20;99.90
38866;DHT22;62686;48.984;8.394;2024-03-29T19:10:11;11.20;99.90
38866;DHT22;62686;48.984;8.394;2024-03-29T19:12:40;11.20;99.90
38866;DHT22;62686;48.984;8.394;2024-03-29T19:15:07;11.10;99.90
38866;DHT22;62686;48.984;8.394;2024-03-29T19:17:35;11.10;99.90
38866;DHT22;62686;48.984;8.394;2024-03-29T19:20:01;11.00;99.90
38866;DHT22;62686;48.984;8.394;2024-03-29T19:22:29;10.90;99.90
38866;DHT22;62686;48.984;8.394;2024-03-29T19:24:55;10.90;99.90
38866;DHT22;62686;48.984;8.394;2024-03-29T19:27:23;10.80;99.90
38866;DHT22;62686;48.984;8.394;2024-03-29T19:29:51;10.70;99.90
38866;DHT22;62686;48.984;8.394;2024-03-29T19:32:20;10.60;99.90
38866;DHT22;62686;48.984;8.394;2024-03-29T19:34:46;10.60;99.90
38866;DHT22;62686;48.984;8.394;2024-03-29T19:37:14;10.50;99.90
38866;DHT22;62686;48.984;8.394;2024-03-29T19:39:41;10.50;99.90
38866;DHT22;62686;48.984;8.394;2024-03-29T19:42:08;10.50;99.90
38866;DHT22;62686;48.984;8.394;2024-03-29T19:44:35;10.50;99.90
38866;DHT22;62686;48.984;8.394;2024-03-29T19:47:04;10.50;99.90
38866;DHT22;62686;48.984;8.394;2024-03-29T19:49:31;10.40;99.90
38866;DHT22;62686;48.984;8.394;2024-03-29T19:51:59;10.40;99.90
38866;DHT22;62686;48.984;8.394;2024-03-29T19:54:25;10.30;99.90
38866;DHT22;62686;48.984;8.394;2024-03-29T19:56:54;10.40;99.90
38866;DHT22;62686;48.984;8.394;2024-03-29T19:59:20;10.40;99.90
38866;DHT22;62686;48.984;8.394;2024-03-29T20:01:48;10.40;99.90
38866;DHT22;62686;48.984;8.394;2024-03-29T20:04:15;10.30;99.90
38866;DHT22;62686;48.984;8.394;2024-03-29T20:06:43;10.20;99.90
38866;DHT22;62686;48.984;8.394;2024-03-29T20:09:09;10.20;99.90
38866;DHT22;62686;48.984;8.394;2024-03-29T20:11:37;10.20;99.90
38866;DHT22;62686;48.984;8.394;2024-03-29T20:14:03;10.20;99.90
38866;DHT22;62686;48.984;8.394;2024-03-29T20:16:31;10.20;99.90
38866;DHT22;62686;48.984;8.394;2024-03-29T20:18:57;10.20;99.90